In Rescue
 
Open Full Screen Window  High Contrast Mode
Wind Gusting 16 knots
11
November 29, 2022 8:55 AM CST
Weather Information
Wind Direction
  320 °
Wind Speed
  11 kt (13 mph)
Wind Gust
  16 kt (18 mph)
Altimeter
29.77 in
Visibility
10 SM
Temperature
-07° C
19° F
Dewpoint
-13° C
F
Humidity
63%
1hr Rain Fall
00.00 in.
24hr Rain Fall
00.00 in.
Sky Condition
Missing
VFR

METAR KVVV 291455Z 32011G16KT 10SM M07/M13 A2977 RMK AO2

FAA Disclaimer: The data displayed is for advisory purposes only and is not to be used for flight planning or operations.
Missing Cloud Data